Sargent, NE (68874)

5:47 AM CDT on July 29, 2014 (GMT -0500)
Sargent (KNESARGE4) Elev 2314 ft | 41.64 °N, 99.38 °W | Change Station

Current weather conditions updated 12 minutes ago

Mostly Cloudy
Mostly Cloudy
60.8 °F
Feels Like 60.8 °F
N
0.0
Wind Variable Wind from East
Gusts 1.0 mph

Today is forecast to be nearly the same temperature as yesterday. Thunderstorms early.

Today
High -- | Low -- °F
--% Chance of Precip.
Yesterday
High -- | Low -- °F
Precip. -- in
6:28 AM 8:58 PM
Waxing Crescent, 6% visible
Pressure 30.20 in
Visibility 10.0 miles
Clouds Few 5000 ft
Few 7500 ft
Mostly Cloudy 10000 ft
Dew Point 58 °F
Humidity 91%
Rainfall 0.00 in
Snow Depth Not available.
UV 0 out of 12
Pollen 7.20 out of 12
Air Quality Not available.
Flu Activity Not available.
METAR KBBW 290953Z AUTO 08003KT 10SM FEW050 FEW075 BKN100 16/13 A3025 RMK AO2 LTG DSNT NE SLP225 T01560133 $

More Conditions Fewer Conditions

Pressure 30.20 in
Visibility 10.0 miles
Clouds Few 5000 ft
Few 7500 ft
Mostly Cloudy 10000 ft
Dew Point 58 °F
Humidity 91%
Rainfall 0.00 in
Snow Depth Not available.
UV 0 out of 12
Pollen 7.20 out of 12
Air Quality Not available.
Flu Activity Not available.
METAR KBBW 290953Z AUTO 08003KT 10SM FEW050 FEW075 BKN100 16/13 A3025 RMK AO2 LTG DSNT NE SLP225 T01560133 $

More Conditions Fewer Conditions

Nowcast | as of 2:49 am CDT on July 29, 2014

Isolate thunderstorms will continue along a line from Merriman to Brownlee to Taylor through the early morning hours. Brief heavy rain...gusty winds and possibly some small hail can be expected. Hourly rainfall rates of around a tenth of an inch can be expected.

×

10-Day Weather Forecast

Almanac

Astronomy

Jul. 29, 2014 Rise Set
Actual Time 6:28 AM CDT 8:58 PM CDT
Civil Twilight 5:57 AM CDT 9:29 PM CDT
Nautical Twilight 5:17 AM CDT 10:09 PM CDT
Astronomical Twilight 4:33 AM CDT 10:52 PM CDT
Moon 9:09 AM CDT 10:08 PM CDT
Length of Visible Light 15h 32m
Length of Day
14h 29m
Tomorrow will be 2m 3s shorter.
Waxing Crescent, 6% of the Moon is Illuminated
Today
Waxing Crescent
Aug 3
First Quarter
Aug 10
Full
Aug 17
Last Quarter
Aug 25
New

Today's Extremes

State Highs State Lows

Community

WunderPhotos

Upload Photos

1,738,683 photos uploaded!

Nearby

Snow Depth

Station Depth Elevation
No new snow has been reported.

Earthquake Activity

City Distance Mag. Time & Date
No recent earthquake activity has been reported nearby.
Minimum magnitude displayed is 2.5.

Coastal Water Temperatures

Place Temperature
No Stations Reporting

Nearby Weather Stations

Station Location Temp. Dew Point Humidity Wind Precip. Elev Updated Type
Sargent, Sargent, NE 60.8 °F 58 °F 91% East  at  0.0 mph 0.00 in / hr 2314 ft 5:34 AM CDT Normal
South of Town, Broken Bow, NE 58.2 °F 56 °F 93% ESE  at  0.0 mph 0.00 in / hr 2523 ft 5:46 AM CDT Normal
Ansley, NE 60.3 °F 57 °F 90% ENE  at  0.0 mph 0.00 in / hr 2320 ft 5:29 AM CDT Normal

Show More Stations Show Fewer Stations